sensor_id;sensor_type;location;lat;lon;timestamp;temperature;humidity
3037;DHT22;1528;52.550;13.408;2023-06-10T00:02:14;18.50;23.30
3037;DHT22;1528;52.550;13.408;2023-06-10T00:05:01;18.40;23.80
3037;DHT22;1528;52.550;13.408;2023-06-10T00:07:48;18.40;24.00
3037;DHT22;1528;52.550;13.408;2023-06-10T00:10:34;18.30;24.00
3037;DHT22;1528;52.550;13.408;2023-06-10T00:13:20;18.30;24.20
3037;DHT22;1528;52.550;13.408;2023-06-10T00:16:06;18.30;24.30
3037;DHT22;1528;52.550;13.408;2023-06-10T00:18:52;18.30;24.20
3037;DHT22;1528;52.550;13.408;2023-06-10T00:21:40;18.10;24.60
3037;DHT22;1528;52.550;13.408;2023-06-10T00:24:27;18.00;24.80
3037;DHT22;1528;52.550;13.408;2023-06-10T00:27:12;18.00;24.70
3037;DHT22;1528;52.550;13.408;2023-06-10T00:29:58;18.10;24.90
3037;DHT22;1528;52.550;13.408;2023-06-10T00:32:44;18.10;24.60
3037;DHT22;1528;52.550;13.408;2023-06-10T00:35:29;18.00;24.90
3037;DHT22;1528;52.550;13.408;2023-06-10T00:38:15;17.90;25.00
3037;DHT22;1528;52.550;13.408;2023-06-10T00:41:02;17.90;25.20
3037;DHT22;1528;52.550;13.408;2023-06-10T00:43:47;18.00;25.00
3037;DHT22;1528;52.550;13.408;2023-06-10T00:46:34;18.00;25.20
3037;DHT22;1528;52.550;13.408;2023-06-10T00:49:19;18.00;24.90
3037;DHT22;1528;52.550;13.408;2023-06-10T00:52:06;18.00;25.00
3037;DHT22;1528;52.550;13.408;2023-06-10T00:54:52;18.00;25.00
3037;DHT22;1528;52.550;13.408;2023-06-10T00:57:39;17.90;25.10
3037;DHT22;1528;52.550;13.408;2023-06-10T01:00:24;17.90;25.40
3037;DHT22;1528;52.550;13.408;2023-06-10T01:03:10;17.90;25.20
3037;DHT22;1528;52.550;13.408;2023-06-10T01:06:02;17.80;25.50
3037;DHT22;1528;52.550;13.408;2023-06-10T01:09:02;17.70;25.80
3037;DHT22;1528;52.550;13.408;2023-06-10T01:11:58;17.70;25.80
3037;DHT22;1528;52.550;13.408;2023-06-10T01:14:46;17.70;26.00
3037;DHT22;1528;52.550;13.408;2023-06-10T01:17:32;17.60;26.00
3037;DHT22;1528;52.550;13.408;2023-06-10T01:20:20;17.50;26.30
3037;DHT22;1528;52.550;13.408;2023-06-10T01:23:08;17.60;26.60
3037;DHT22;1528;52.550;13.408;2023-06-10T01:25:59;17.70;26.00
3037;DHT22;1528;52.550;13.408;2023-06-10T01:28:49;17.60;26.20
3037;DHT22;1528;52.550;13.408;2023-06-10T01:31:41;17.50;26.30
3037;DHT22;1528;52.550;13.408;2023-06-10T01:34:28;17.60;26.20
3037;DHT22;1528;52.550;13.408;2023-06-10T01:37:18;17.60;26.30
3037;DHT22;1528;52.550;13.408;2023-06-10T01:40:07;17.40;26.50
3037;DHT22;1528;52.550;13.408;2023-06-10T01:42:53;17.40;26.50
3037;DHT22;1528;52.550;13.408;2023-06-10T01:45:39;17.50;26.60
3037;DHT22;1528;52.550;13.408;2023-06-10T01:48:24;17.40;26.70
3037;DHT22;1528;52.550;13.408;2023-06-10T01:51:10;17.50;27.10
3037;DHT22;1528;52.550;13.408;2023-06-10T01:53:55;17.40;26.70
3037;DHT22;1528;52.550;13.408;2023-06-10T01:56:42;17.40;26.80
3037;DHT22;1528;52.550;13.408;2023-06-10T01:59:28;17.40;26.70
3037;DHT22;1528;52.550;13.408;2023-06-10T02:02:13;17.30;27.10
3037;DHT22;1528;52.550;13.408;2023-06-10T02:04:59;17.30;27.10
3037;DHT22;1528;52.550;13.408;2023-06-10T02:07:45;17.20;27.30
3037;DHT22;1528;52.550;13.408;2023-06-10T02:10:31;17.20;27.40
3037;DHT22;1528;52.550;13.408;2023-06-10T02:13:18;17.20;27.40
3037;DHT22;1528;52.550;13.408;2023-06-10T02:16:04;17.20;27.30
3037;DHT22;1528;52.550;13.408;2023-06-10T02:18:50;17.20;27.60
3037;DHT22;1528;52.550;13.408;2023-06-10T02:21:36;17.10;27.50
3037;DHT22;1528;52.550;13.408;2023-06-10T02:24:22;17.20;27.70
3037;DHT22;1528;52.550;13.408;2023-06-10T02:27:07;17.20;27.60
3037;DHT22;1528;52.550;13.408;2023-06-10T02:29:54;17.20;27.80
3037;DHT22;1528;52.550;13.408;2023-06-10T02:32:39;17.10;27.80
3037;DHT22;1528;52.550;13.408;2023-06-10T02:35:25;17.20;27.60
3037;DHT22;1528;52.550;13.408;2023-06-10T02:38:10;17.10;27.80
3037;DHT22;1528;52.550;13.408;2023-06-10T02:40:56;17.10;27.80
3037;DHT22;1528;52.550;13.408;2023-06-10T02:43:42;17.00;27.80
3037;DHT22;1528;52.550;13.408;2023-06-10T02:46:29;17.00;27.80
3037;DHT22;1528;52.550;13.408;2023-06-10T02:49:14;17.00;27.80
3037;DHT22;1528;52.550;13.408;2023-06-10T02:52:00;17.10;27.80
3037;DHT22;1528;52.550;13.408;2023-06-10T02:54:46;16.90;28.20
3037;DHT22;1528;52.550;13.408;2023-06-10T02:57:31;16.90;28.10
3037;DHT22;1528;52.550;13.408;2023-06-10T03:00:18;16.90;28.20
3037;DHT22;1528;52.550;13.408;2023-06-10T03:03:05;16.90;28.40
3037;DHT22;1528;52.550;13.408;2023-06-10T03:05:50;16.80;29.00
3037;DHT22;1528;52.550;13.408;2023-06-10T03:08:36;16.90;28.60
3037;DHT22;1528;52.550;13.408;2023-06-10T03:11:23;17.10;28.70
3037;DHT22;1528;52.550;13.408;2023-06-10T03:14:10;16.90;28.50
3037;DHT22;1528;52.550;13.408;2023-06-10T03:16:55;16.90;28.60
3037;DHT22;1528;52.550;13.408;2023-06-10T03:19:42;16.90;28.50
3037;DHT22;1528;52.550;13.408;2023-06-10T03:22:28;16.90;28.70
3037;DHT22;1528;52.550;13.408;2023-06-10T03:25:13;16.60;29.20
3037;DHT22;1528;52.550;13.408;2023-06-10T03:28:00;16.70;29.40
3037;DHT22;1528;52.550;13.408;2023-06-10T03:30:45;16.80;29.20
3037;DHT22;1528;52.550;13.408;2023-06-10T03:33:31;16.80;29.60
3037;DHT22;1528;52.550;13.408;2023-06-10T03:36:18;16.70;29.40
3037;DHT22;1528;52.550;13.408;2023-06-10T03:39:03;16.90;29.00
3037;DHT22;1528;52.550;13.408;2023-06-10T03:41:49;16.90;29.00
3037;DHT22;1528;52.550;13.408;2023-06-10T03:44:34;16.90;28.70
3037;DHT22;1528;52.550;13.408;2023-06-10T03:47:20;16.80;28.60
3037;DHT22;1528;52.550;13.408;2023-06-10T03:50:07;17.00;28.60
3037;DHT22;1528;52.550;13.408;2023-06-10T03:52:54;17.00;28.60
3037;DHT22;1528;52.550;13.408;2023-06-10T03:55:40;16.90;28.80
3037;DHT22;1528;52.550;13.408;2023-06-10T03:58:26;16.90;28.80
3037;DHT22;1528;52.550;13.408;2023-06-10T04:01:11;16.90;28.70
3037;DHT22;1528;52.550;13.408;2023-06-10T04:03:57;16.90;28.70
3037;DHT22;1528;52.550;13.408;2023-06-10T04:06:43;17.00;28.80
3037;DHT22;1528;52.550;13.408;2023-06-10T04:09:30;17.00;28.70
3037;DHT22;1528;52.550;13.408;2023-06-10T04:12:16;17.00;28.70
3037;DHT22;1528;52.550;13.408;2023-06-10T04:15:02;17.00;28.80
3037;DHT22;1528;52.550;13.408;2023-06-10T04:17:48;17.00;28.80
3037;DHT22;1528;52.550;13.408;2023-06-10T04:20:34;17.00;28.60
3037;DHT22;1528;52.550;13.408;2023-06-10T04:23:20;17.00;28.60
3037;DHT22;1528;52.550;13.408;2023-06-10T04:26:07;17.10;28.30
3037;DHT22;1528;52.550;13.408;2023-06-10T04:28:53;17.20;28.40
3037;DHT22;1528;52.550;13.408;2023-06-10T04:31:38;17.20;28.30
3037;DHT22;1528;52.550;13.408;2023-06-10T04:34:24;17.20;28.40
3037;DHT22;1528;52.550;13.408;2023-06-10T04:37:10;17.10;29.20
3037;DHT22;1528;52.550;13.408;2023-06-10T04:39:56;17.20;28.60
3037;DHT22;1528;52.550;13.408;2023-06-10T04:42:44;17.20;28.40
3037;DHT22;1528;52.550;13.408;2023-06-10T04:45:30;17.00;28.90
3037;DHT22;1528;52.550;13.408;2023-06-10T04:48:15;16.90;29.20
3037;DHT22;1528;52.550;13.408;2023-06-10T04:51:01;17.00;29.00
3037;DHT22;1528;52.550;13.408;2023-06-10T04:53:46;17.00;29.00
3037;DHT22;1528;52.550;13.408;2023-06-10T04:56:32;16.90;29.20
3037;DHT22;1528;52.550;13.408;2023-06-10T04:59:19;17.10;28.90
3037;DHT22;1528;52.550;13.408;2023-06-10T05:02:05;17.00;29.00
3037;DHT22;1528;52.550;13.408;2023-06-10T05:04:50;17.00;29.30
3037;DHT22;1528;52.550;13.408;2023-06-10T05:07:37;17.00;29.20
3037;DHT22;1528;52.550;13.408;2023-06-10T05:10:23;17.00;29.40
3037;DHT22;1528;52.550;13.408;2023-06-10T05:13:08;17.10;29.00
3037;DHT22;1528;52.550;13.408;2023-06-10T05:15:55;17.10;29.00
3037;DHT22;1528;52.550;13.408;2023-06-10T05:18:41;17.30;28.70
3037;DHT22;1528;52.550;13.408;2023-06-10T05:21:26;17.50;28.10
3037;DHT22;1528;52.550;13.408;2023-06-10T05:24:12;17.40;28.30
3037;DHT22;1528;52.550;13.408;2023-06-10T05:26:58;17.60;28.00
3037;DHT22;1528;52.550;13.408;2023-06-10T05:29:43;17.70;27.80
3037;DHT22;1528;52.550;13.408;2023-06-10T05:32:30;17.60;28.20
3037;DHT22;1528;52.550;13.408;2023-06-10T05:35:16;17.70;27.90
3037;DHT22;1528;52.550;13.408;2023-06-10T05:38:02;17.80;28.10
3037;DHT22;1528;52.550;13.408;2023-06-10T05:40:48;18.00;27.40
3037;DHT22;1528;52.550;13.408;2023-06-10T05:43:33;18.10;27.40
3037;DHT22;1528;52.550;13.408;2023-06-10T05:46:19;18.30;26.90
3037;DHT22;1528;52.550;13.408;2023-06-10T05:49:06;18.40;26.60
3037;DHT22;1528;52.550;13.408;2023-06-10T05:51:52;18.80;26.00
3037;DHT22;1528;52.550;13.408;2023-06-10T05:54:37;19.00;25.50
3037;DHT22;1528;52.550;13.408;2023-06-10T05:57:23;19.20;25.30
3037;DHT22;1528;52.550;13.408;2023-06-10T06:00:10;19.40;24.80
3037;DHT22;1528;52.550;13.408;2023-06-10T06:02:55;19.30;24.80
3037;DHT22;1528;52.550;13.408;2023-06-10T06:05:44;19.40;24.80
3037;DHT22;1528;52.550;13.408;2023-06-10T06:08:30;19.50;24.90
3037;DHT22;1528;52.550;13.408;2023-06-10T06:11:16;19.70;24.80
3037;DHT22;1528;52.550;13.408;2023-06-10T06:14:01;19.60;24.20
3037;DHT22;1528;52.550;13.408;2023-06-10T06:16:47;19.70;24.10
3037;DHT22;1528;52.550;13.408;2023-06-10T06:19:33;19.80;24.30
3037;DHT22;1528;52.550;13.408;2023-06-10T06:22:19;20.10;23.20
3037;DHT22;1528;52.550;13.408;2023-06-10T06:25:07;20.30;22.50
3037;DHT22;1528;52.550;13.408;2023-06-10T06:27:52;20.40;22.50
3037;DHT22;1528;52.550;13.408;2023-06-10T06:30:38;20.20;22.40
3037;DHT22;1528;52.550;13.408;2023-06-10T06:33:23;20.20;23.10
3037;DHT22;1528;52.550;13.408;2023-06-10T06:36:10;20.30;22.50
3037;DHT22;1528;52.550;13.408;2023-06-10T06:38:57;20.30;22.30
3037;DHT22;1528;52.550;13.408;2023-06-10T06:41:42;20.20;22.40
3037;DHT22;1528;52.550;13.408;2023-06-10T06:44:28;20.40;22.20
3037;DHT22;1528;52.550;13.408;2023-06-10T06:47:14;20.60;22.10
3037;DHT22;1528;52.550;13.408;2023-06-10T06:50:01;20.90;21.60
3037;DHT22;1528;52.550;13.408;2023-06-10T06:52:47;20.90;21.60
3037;DHT22;1528;52.550;13.408;2023-06-10T06:55:34;20.90;21.50
3037;DHT22;1528;52.550;13.408;2023-06-10T06:58:19;21.00;21.30
3037;DHT22;1528;52.550;13.408;2023-06-10T07:01:05;21.20;21.10
3037;DHT22;1528;52.550;13.408;2023-06-10T07:03:51;21.20;21.10
3037;DHT22;1528;52.550;13.408;2023-06-10T07:06:36;21.50;20.50
3037;DHT22;1528;52.550;13.408;2023-06-10T07:09:22;21.70;20.40
3037;DHT22;1528;52.550;13.408;2023-06-10T07:12:09;21.70;19.90
3037;DHT22;1528;52.550;13.408;2023-06-10T07:14:55;22.00;19.40
3037;DHT22;1528;52.550;13.408;2023-06-10T07:17:41;22.10;18.50
3037;DHT22;1528;52.550;13.408;2023-06-10T07:20:27;22.20;19.40
3037;DHT22;1528;52.550;13.408;2023-06-10T07:23:13;22.20;19.50
3037;DHT22;1528;52.550;13.408;2023-06-10T07:25:58;22.40;19.20
3037;DHT22;1528;52.550;13.408;2023-06-10T07:28:45;22.30;19.30
3037;DHT22;1528;52.550;13.408;2023-06-10T07:31:30;22.30;19.50
3037;DHT22;1528;52.550;13.408;2023-06-10T07:34:16;22.50;19.00
3037;DHT22;1528;52.550;13.408;2023-06-10T07:37:01;22.50;18.10
3037;DHT22;1528;52.550;13.408;2023-06-10T07:39:47;22.60;18.90
3037;DHT22;1528;52.550;13.408;2023-06-10T07:42:35;22.50;18.90
3037;DHT22;1528;52.550;13.408;2023-06-10T07:45:22;22.50;19.10
3037;DHT22;1528;52.550;13.408;2023-06-10T07:48:08;22.70;18.60
3037;DHT22;1528;52.550;13.408;2023-06-10T07:50:54;22.90;18.20
3037;DHT22;1528;52.550;13.408;2023-06-10T07:53:39;23.00;18.10
3037;DHT22;1528;52.550;13.408;2023-06-10T07:56:25;23.00;17.20
3037;DHT22;1528;52.550;13.408;2023-06-10T07:59:10;23.20;17.70
3037;DHT22;1528;52.550;13.408;2023-06-10T08:01:57;23.20;17.20
3037;DHT22;1528;52.550;13.408;2023-06-10T08:04:43;23.30;17.80
3037;DHT22;1528;52.550;13.408;2023-06-10T08:07:29;23.40;16.50
3037;DHT22;1528;52.550;13.408;2023-06-10T08:10:14;23.50;17.50
3037;DHT22;1528;52.550;13.408;2023-06-10T08:13:00;23.70;16.40
3037;DHT22;1528;52.550;13.408;2023-06-10T08:15:45;23.80;15.80
3037;DHT22;1528;52.550;13.408;2023-06-10T08:18:33;24.00;16.30
3037;DHT22;1528;52.550;13.408;2023-06-10T08:21:19;24.00;16.20
3037;DHT22;1528;52.550;13.408;2023-06-10T08:24:05;23.90;16.30
3037;DHT22;1528;52.550;13.408;2023-06-10T08:26:51;23.90;16.00
3037;DHT22;1528;52.550;13.408;2023-06-10T08:29:36;23.80;16.10
3037;DHT22;1528;52.550;13.408;2023-06-10T08:32:22;23.90;16.60
3037;DHT22;1528;52.550;13.408;2023-06-10T08:35:09;24.10;16.60
3037;DHT22;1528;52.550;13.408;2023-06-10T08:37:55;24.30;15.90
3037;DHT22;1528;52.550;13.408;2023-06-10T08:40:41;24.40;15.60
3037;DHT22;1528;52.550;13.408;2023-06-10T08:43:32;24.60;15.60
3037;DHT22;1528;52.550;13.408;2023-06-10T08:46:18;24.90;14.30
3037;DHT22;1528;52.550;13.408;2023-06-10T08:49:05;24.80;14.50
3037;DHT22;1528;52.550;13.408;2023-06-10T08:51:58;24.80;14.50
3037;DHT22;1528;52.550;13.408;2023-06-10T08:54:48;24.80;14.20
3037;DHT22;1528;52.550;13.408;2023-06-10T08:57:34;24.80;14.10
3037;DHT22;1528;52.550;13.408;2023-06-10T09:00:20;24.80;14.60
3037;DHT22;1528;52.550;13.408;2023-06-10T09:03:06;24.90;14.50
3037;DHT22;1528;52.550;13.408;2023-06-10T09:05:52;25.00;14.00
3037;DHT22;1528;52.550;13.408;2023-06-10T09:08:41;25.20;13.40
3037;DHT22;1528;52.550;13.408;2023-06-10T09:11:27;25.10;13.90
3037;DHT22;1528;52.550;13.408;2023-06-10T09:14:13;25.20;13.80
3037;DHT22;1528;52.550;13.408;2023-06-10T09:17:01;25.10;13.80
3037;DHT22;1528;52.550;13.408;2023-06-10T09:19:47;24.80;14.10
3037;DHT22;1528;52.550;13.408;2023-06-10T09:22:34;24.80;14.50
3037;DHT22;1528;52.550;13.408;2023-06-10T09:25:35;24.80;15.40
3037;DHT22;1528;52.550;13.408;2023-06-10T09:28:21;24.60;15.80
3037;DHT22;1528;52.550;13.408;2023-06-10T09:31:07;24.40;16.00
3037;DHT22;1528;52.550;13.408;2023-06-10T09:33:53;24.20;16.80
3037;DHT22;1528;52.550;13.408;2023-06-10T09:36:39;24.20;16.60
3037;DHT22;1528;52.550;13.408;2023-06-10T09:39:25;24.30;17.20
3037;DHT22;1528;52.550;13.408;2023-06-10T09:42:17;24.40;17.00
3037;DHT22;1528;52.550;13.408;2023-06-10T09:45:04;24.50;16.90
3037;DHT22;1528;52.550;13.408;2023-06-10T09:47:52;24.50;16.10
3037;DHT22;1528;52.550;13.408;2023-06-10T09:50:42;24.40;16.20
3037;DHT22;1528;52.550;13.408;2023-06-10T09:53:28;24.40;16.00
3037;DHT22;1528;52.550;13.408;2023-06-10T09:56:18;24.40;16.60
3037;DHT22;1528;52.550;13.408;2023-06-10T09:59:05;24.20;16.50
3037;DHT22;1528;52.550;13.408;2023-06-10T10:01:55;24.20;16.60
3037;DHT22;1528;52.550;13.408;2023-06-10T10:04:41;24.30;16.80
3037;DHT22;1528;52.550;13.408;2023-06-10T10:07:26;24.20;17.00
3037;DHT22;1528;52.550;13.408;2023-06-10T10:10:13;24.40;17.30
3037;DHT22;1528;52.550;13.408;2023-06-10T10:12:59;24.20;17.40
3037;DHT22;1528;52.550;13.408;2023-06-10T10:15:47;24.20;18.40
3037;DHT22;1528;52.550;13.408;2023-06-10T10:18:35;24.20;17.90
3037;DHT22;1528;52.550;13.408;2023-06-10T10:21:23;24.30;18.60
3037;DHT22;1528;52.550;13.408;2023-06-10T10:24:14;24.40;17.00
3037;DHT22;1528;52.550;13.408;2023-06-10T10:27:04;24.50;16.60
3037;DHT22;1528;52.550;13.408;2023-06-10T10:29:53;24.40;16.80
3037;DHT22;1528;52.550;13.408;2023-06-10T10:32:43;24.50;15.80
3037;DHT22;1528;52.550;13.408;2023-06-10T10:35:33;24.60;15.20
3037;DHT22;1528;52.550;13.408;2023-06-10T10:38:19;24.70;14.20
3037;DHT22;1528;52.550;13.408;2023-06-10T10:41:06;24.80;14.00
3037;DHT22;1528;52.550;13.408;2023-06-10T10:43:52;24.80;13.90
3037;DHT22;1528;52.550;13.408;2023-06-10T10:46:48;24.60;14.60
3037;DHT22;1528;52.550;13.408;2023-06-10T10:49:35;24.70;13.80
3037;DHT22;1528;52.550;13.408;2023-06-10T10:52:22;24.60;14.40
3037;DHT22;1528;52.550;13.408;2023-06-10T10:55:12;24.60;13.80
3037;DHT22;1528;52.550;13.408;2023-06-10T10:57:59;24.70;13.70
3037;DHT22;1528;52.550;13.408;2023-06-10T11:00:45;24.60;12.90
3037;DHT22;1528;52.550;13.408;2023-06-10T11:03:30;24.60;12.80
3037;DHT22;1528;52.550;13.408;2023-06-10T11:06:18;24.80;13.20
3037;DHT22;1528;52.550;13.408;2023-06-10T11:09:25;25.10;12.70
3037;DHT22;1528;52.550;13.408;2023-06-10T11:12:22;25.20;12.60
3037;DHT22;1528;52.550;13.408;2023-06-10T11:15:08;25.40;12.70
3037;DHT22;1528;52.550;13.408;2023-06-10T11:18:15;25.50;11.30
3037;DHT22;1528;52.550;13.408;2023-06-10T11:21:01;25.40;11.70
3037;DHT22;1528;52.550;13.408;2023-06-10T11:23:50;25.40;12.20
3037;DHT22;1528;52.550;13.408;2023-06-10T11:26:35;25.50;11.80
3037;DHT22;1528;52.550;13.408;2023-06-10T11:29:28;25.70;11.80
3037;DHT22;1528;52.550;13.408;2023-06-10T11:32:14;25.90;11.50
3037;DHT22;1528;52.550;13.408;2023-06-10T11:35:04;26.80;10.70
3037;DHT22;1528;52.550;13.408;2023-06-10T11:37:49;27.80;9.50
3037;DHT22;1528;52.550;13.408;2023-06-10T11:40:36;28.60;8.60
3037;DHT22;1528;52.550;13.408;2023-06-10T11:43:22;29.40;7.50
3037;DHT22;1528;52.550;13.408;2023-06-10T11:46:09;29.60;7.30
3037;DHT22;1528;52.550;13.408;2023-06-10T11:48:56;29.70;7.80
3037;DHT22;1528;52.550;13.408;2023-06-10T11:51:42;29.90;8.00
3037;DHT22;1528;52.550;13.408;2023-06-10T11:54:33;30.20;7.30
3037;DHT22;1528;52.550;13.408;2023-06-10T11:57:20;30.80;6.00
3037;DHT22;1528;52.550;13.408;2023-06-10T12:00:06;32.50;5.10
3037;DHT22;1528;52.550;13.408;2023-06-10T12:02:56;35.60;1.00
3037;DHT22;1528;52.550;13.408;2023-06-10T12:05:55;38.40;1.00
3037;DHT22;1528;52.550;13.408;2023-06-10T12:08:41;40.80;1.00
3037;DHT22;1528;52.550;13.408;2023-06-10T12:11:27;42.50;1.00
3037;DHT22;1528;52.550;13.408;2023-06-10T12:14:15;44.40;1.00
3037;DHT22;1528;52.550;13.408;2023-06-10T12:17:00;45.60;1.00
3037;DHT22;1528;52.550;13.408;2023-06-10T12:19:46;46.70;1.00
3037;DHT22;1528;52.550;13.408;2023-06-10T12:22:37;47.70;1.00
3037;DHT22;1528;52.550;13.408;2023-06-10T12:25:25;48.70;1.00
3037;DHT22;1528;52.550;13.408;2023-06-10T12:28:11;49.40;1.00
3037;DHT22;1528;52.550;13.408;2023-06-10T12:31:10;49.90;1.00
3037;DHT22;1528;52.550;13.408;2023-06-10T12:34:07;50.60;1.00
3037;DHT22;1528;52.550;13.408;2023-06-10T12:36:53;51.50;1.00
3037;DHT22;1528;52.550;13.408;2023-06-10T12:39:39;51.90;1.00
3037;DHT22;1528;52.550;13.408;2023-06-10T12:42:25;52.10;1.00
3037;DHT22;1528;52.550;13.408;2023-06-10T12:45:11;52.30;1.00
3037;DHT22;1528;52.550;13.408;2023-06-10T12:48:10;52.80;1.00
3037;DHT22;1528;52.550;13.408;2023-06-10T12:50:57;53.30;1.00
3037;DHT22;1528;52.550;13.408;2023-06-10T12:53:44;53.90;1.00
3037;DHT22;1528;52.550;13.408;2023-06-10T12:56:29;53.20;1.00
3037;DHT22;1528;52.550;13.408;2023-06-10T12:59:15;54.00;1.00
3037;DHT22;1528;52.550;13.408;2023-06-10T13:02:01;54.30;1.00
3037;DHT22;1528;52.550;13.408;2023-06-10T13:04:48;54.50;1.00
3037;DHT22;1528;52.550;13.408;2023-06-10T13:07:33;54.40;1.00
3037;DHT22;1528;52.550;13.408;2023-06-10T13:10:21;55.40;1.00
3037;DHT22;1528;52.550;13.408;2023-06-10T13:13:07;56.20;1.00
3037;DHT22;1528;52.550;13.408;2023-06-10T13:15:53;55.90;1.00
3037;DHT22;1528;52.550;13.408;2023-06-10T13:18:39;55.50;1.00
3037;DHT22;1528;52.550;13.408;2023-06-10T13:21:26;56.20;1.00
3037;DHT22;1528;52.550;13.408;2023-06-10T13:24:12;56.00;1.00
3037;DHT22;1528;52.550;13.408;2023-06-10T13:26:58;56.30;1.00
3037;DHT22;1528;52.550;13.408;2023-06-10T13:29:43;56.50;1.00
3037;DHT22;1528;52.550;13.408;2023-06-10T13:32:29;57.20;1.00
3037;DHT22;1528;52.550;13.408;2023-06-10T13:35:15;56.80;1.00
3037;DHT22;1528;52.550;13.408;2023-06-10T13:38:02;56.90;1.00
3037;DHT22;1528;52.550;13.408;2023-06-10T13:40:48;57.10;1.00
3037;DHT22;1528;52.550;13.408;2023-06-10T13:43:35;56.90;1.00
3037;DHT22;1528;52.550;13.408;2023-06-10T13:46:21;56.90;1.00
3037;DHT22;1528;52.550;13.408;2023-06-10T13:49:07;57.30;1.00
3037;DHT22;1528;52.550;13.408;2023-06-10T13:51:53;57.50;1.00
3037;DHT22;1528;52.550;13.408;2023-06-10T13:54:40;57.10;1.00
3037;DHT22;1528;52.550;13.408;2023-06-10T13:57:25;55.40;1.00
3037;DHT22;1528;52.550;13.408;2023-06-10T14:00:11;52.50;1.00
3037;DHT22;1528;52.550;13.408;2023-06-10T14:02:57;52.10;1.00
3037;DHT22;1528;52.550;13.408;2023-06-10T14:05:43;51.40;1.00
3037;DHT22;1528;52.550;13.408;2023-06-10T14:08:28;50.70;1.00
3037;DHT22;1528;52.550;13.408;2023-06-10T14:11:15;50.10;1.00
3037;DHT22;1528;52.550;13.408;2023-06-10T14:14:01;51.50;1.00
3037;DHT22;1528;52.550;13.408;2023-06-10T14:16:47;52.80;1.00
3037;DHT22;1528;52.550;13.408;2023-06-10T14:19:32;53.80;1.00
3037;DHT22;1528;52.550;13.408;2023-06-10T14:22:18;55.30;1.00
3037;DHT22;1528;52.550;13.408;2023-06-10T14:25:05;55.90;1.00
3037;DHT22;1528;52.550;13.408;2023-06-10T14:27:52;56.60;1.00
3037;DHT22;1528;52.550;13.408;2023-06-10T14:30:38;57.20;1.00
3037;DHT22;1528;52.550;13.408;2023-06-10T14:33:23;57.50;1.00
3037;DHT22;1528;52.550;13.408;2023-06-10T14:36:09;57.60;1.00
3037;DHT22;1528;52.550;13.408;2023-06-10T14:38:55;58.20;1.00
3037;DHT22;1528;52.550;13.408;2023-06-10T14:41:41;57.50;1.00
3037;DHT22;1528;52.550;13.408;2023-06-10T14:44:28;56.90;1.00
3037;DHT22;1528;52.550;13.408;2023-06-10T14:47:13;56.40;1.00
3037;DHT22;1528;52.550;13.408;2023-06-10T14:49:59;54.80;1.00
3037;DHT22;1528;52.550;13.408;2023-06-10T14:52:45;51.50;1.00
3037;DHT22;1528;52.550;13.408;2023-06-10T14:55:30;48.80;1.00
3037;DHT22;1528;52.550;13.408;2023-06-10T14:58:16;46.10;1.00
3037;DHT22;1528;52.550;13.408;2023-06-10T15:01:03;44.70;1.00
3037;DHT22;1528;52.550;13.408;2023-06-10T15:03:49;43.10;1.00
3037;DHT22;1528;52.550;13.408;2023-06-10T15:06:34;42.10;1.00
3037;DHT22;1528;52.550;13.408;2023-06-10T15:09:20;41.20;1.00
3037;DHT22;1528;52.550;13.408;2023-06-10T15:12:07;40.40;1.00
3037;DHT22;1528;52.550;13.408;2023-06-10T15:14:52;39.60;1.00
3037;DHT22;1528;52.550;13.408;2023-06-10T15:17:39;39.00;1.00
3037;DHT22;1528;52.550;13.408;2023-06-10T15:20:25;38.70;1.00
3037;DHT22;1528;52.550;13.408;2023-06-10T15:23:11;38.20;1.00
3037;DHT22;1528;52.550;13.408;2023-06-10T15:25:56;37.70;1.00
3037;DHT22;1528;52.550;13.408;2023-06-10T15:28:42;37.20;1.00
3037;DHT22;1528;52.550;13.408;2023-06-10T15:31:27;36.40;1.00
3037;DHT22;1528;52.550;13.408;2023-06-10T15:34:15;35.90;1.00
3037;DHT22;1528;52.550;13.408;2023-06-10T15:37:01;35.30;1.00
3037;DHT22;1528;52.550;13.408;2023-06-10T15:39:47;34.90;1.00
3037;DHT22;1528;52.550;13.408;2023-06-10T15:42:32;34.50;1.00
3037;DHT22;1528;52.550;13.408;2023-06-10T15:45:18;34.50;1.00
3037;DHT22;1528;52.550;13.408;2023-06-10T15:48:04;34.30;1.00
3037;DHT22;1528;52.550;13.408;2023-06-10T15:50:51;34.10;1.00
3037;DHT22;1528;52.550;13.408;2023-06-10T15:53:36;34.10;1.00
3037;DHT22;1528;52.550;13.408;2023-06-10T15:56:23;33.90;1.00
3037;DHT22;1528;52.550;13.408;2023-06-10T15:59:10;33.70;1.00
3037;DHT22;1528;52.550;13.408;2023-06-10T16:01:55;33.50;1.00
3037;DHT22;1528;52.550;13.408;2023-06-10T16:04:41;33.30;1.00
3037;DHT22;1528;52.550;13.408;2023-06-10T16:07:28;33.20;1.00
3037;DHT22;1528;52.550;13.408;2023-06-10T16:10:13;32.90;1.00
3037;DHT22;1528;52.550;13.408;2023-06-10T16:12:59;32.70;1.00
3037;DHT22;1528;52.550;13.408;2023-06-10T16:15:46;32.30;1.00
3037;DHT22;1528;52.550;13.408;2023-06-10T16:18:32;32.10;1.00
3037;DHT22;1528;52.550;13.408;2023-06-10T16:21:18;31.70;1.00
3037;DHT22;1528;52.550;13.408;2023-06-10T16:24:06;31.50;1.00
3037;DHT22;1528;52.550;13.408;2023-06-10T16:26:51;31.50;1.00
3037;DHT22;1528;52.550;13.408;2023-06-10T16:29:37;31.50;1.00
3037;DHT22;1528;52.550;13.408;2023-06-10T16:32:22;31.40;1.00
3037;DHT22;1528;52.550;13.408;2023-06-10T16:35:08;31.30;1.00
3037;DHT22;1528;52.550;13.408;2023-06-10T16:37:53;31.30;1.00
3037;DHT22;1528;52.550;13.408;2023-06-10T16:40:40;31.30;1.00
3037;DHT22;1528;52.550;13.408;2023-06-10T16:43:26;31.20;1.00
3037;DHT22;1528;52.550;13.408;2023-06-10T16:46:12;31.20;1.00
3037;DHT22;1528;52.550;13.408;2023-06-10T16:48:57;31.10;1.00
3037;DHT22;1528;52.550;13.408;2023-06-10T16:51:43;31.00;1.00
3037;DHT22;1528;52.550;13.408;2023-06-10T16:54:29;30.90;1.00
3037;DHT22;1528;52.550;13.408;2023-06-10T16:57:16;30.80;1.00
3037;DHT22;1528;52.550;13.408;2023-06-10T17:00:01;30.60;1.00
3037;DHT22;1528;52.550;13.408;2023-06-10T17:02:48;30.50;1.00
3037;DHT22;1528;52.550;13.408;2023-06-10T17:05:33;30.50;1.00
3037;DHT22;1528;52.550;13.408;2023-06-10T17:08:19;30.40;1.00
3037;DHT22;1528;52.550;13.408;2023-06-10T17:11:05;30.40;1.00
3037;DHT22;1528;52.550;13.408;2023-06-10T17:13:52;30.20;1.00
3037;DHT22;1528;52.550;13.408;2023-06-10T17:16:38;30.00;1.00
3037;DHT22;1528;52.550;13.408;2023-06-10T17:19:23;29.90;1.00
3037;DHT22;1528;52.550;13.408;2023-06-10T17:22:09;29.80;1.00
3037;DHT22;1528;52.550;13.408;2023-06-10T17:24:54;29.70;1.00
3037;DHT22;1528;52.550;13.408;2023-06-10T17:27:40;29.50;1.00
3037;DHT22;1528;52.550;13.408;2023-06-10T17:30:27;29.40;1.00
3037;DHT22;1528;52.550;13.408;2023-06-10T17:33:13;29.20;1.00
3037;DHT22;1528;52.550;13.408;2023-06-10T17:35:58;29.10;1.00
3037;DHT22;1528;52.550;13.408;2023-06-10T17:38:44;29.10;1.00
3037;DHT22;1528;52.550;13.408;2023-06-10T17:41:29;29.00;1.00
3037;DHT22;1528;52.550;13.408;2023-06-10T17:44:15;29.10;1.00
3037;DHT22;1528;52.550;13.408;2023-06-10T17:47:02;28.90;1.00
3037;DHT22;1528;52.550;13.408;2023-06-10T17:49:48;28.70;1.00
3037;DHT22;1528;52.550;13.408;2023-06-10T17:52:34;28.60;1.00
3037;DHT22;1528;52.550;13.408;2023-06-10T17:55:19;28.40;1.00
3037;DHT22;1528;52.550;13.408;2023-06-10T17:58:05;28.40;1.00